Pagina principale
METAR-TAF:

METAR-TAF

Aeroporti :

Base aerea di Aviano

Aviano, Italia

latitudine: 46-02N, longitudine: 012-36E, altezza: 128 m

METAR: mancante

Ora: 04:21 (03:21 UTC)

Previsione

Il bollettino è stato emesso 7 ore e 21 minuti fa, alle 20:00 UTC
Previsione valida dal 22 alle 21 UTC al 23 alle 06 UTC
Vento 3 kt da sud
Visibilità 10 km o più
nessuna nube inferiore a 1500 m e nessun cumulonembo
Evoluzione graduale
dal 22 alle 21 UTC al 22 alle 24 UTC
Visibilità 10 km o più
Nubi sparse ad un'altezza di 7000 ft

TAF: LIPA 222000Z 2221/2306 19003KT CAVOK BECMG 2221/2224 9999 SCT070

Osservazioni e previsioni meteorologiche di più di 4000 aeroporti (messaggi METAR e TAF).

Le stazioni disponibili sono rappresentate dai dischi gialli e rossi sulla carta.

Puntare il mouse per vedere il nome della stazione.

Clicca sopra per visualizzare le osservazioni e previsioni meteorologiche.

Per cambiare la mappa : fare clic sui pulsanti verdi con una croce nera per ingrandire, il pulsante verde con un trattino per diminuire, o sulla freccia verde per le mappe adiacenti.


METAR-TAF: